createdAt,value
2017-07-01T00:02:27.476Z,96.70
2017-07-01T00:04:56.040Z,97.10
2017-07-01T00:07:23.833Z,97.10
2017-07-01T00:09:51.580Z,97.00
2017-07-01T00:12:19.330Z,97.20
2017-07-01T00:14:47.148Z,96.80
2017-07-01T00:17:14.909Z,97.10
2017-07-01T00:19:42.667Z,96.90
2017-07-01T00:22:10.467Z,96.60
2017-07-01T00:24:38.218Z,96.50
2017-07-01T00:27:06.132Z,96.60
2017-07-01T00:29:33.896Z,96.60
2017-07-01T00:32:02.408Z,96.90
2017-07-01T00:34:30.206Z,96.90
2017-07-01T00:36:58.723Z,97.30
2017-07-01T00:39:26.485Z,96.90
2017-07-01T00:41:55.359Z,97.00
2017-07-01T00:44:23.132Z,97.00
2017-07-01T00:46:50.901Z,97.00
2017-07-01T00:49:18.749Z,97.10
2017-07-01T00:51:46.525Z,98.20
2017-07-01T00:54:14.287Z,98.60
2017-07-01T00:56:42.111Z,99.30
2017-07-01T00:59:09.866Z,99.00
2017-07-01T01:01:37.681Z,99.50
2017-07-01T01:04:06.217Z,99.70
2017-07-01T01:06:33.969Z,99.70
2017-07-01T01:09:01.834Z,99.90
2017-07-01T01:11:29.587Z,99.90
2017-07-01T01:13:57.392Z,99.90
2017-07-01T01:16:25.925Z,99.90
2017-07-01T01:18:53.685Z,99.90
2017-07-01T01:21:21.477Z,99.90
2017-07-01T01:23:49.220Z,99.90
2017-07-01T01:26:17.786Z,99.90
2017-07-01T01:28:45.535Z,99.90
2017-07-01T01:31:13.352Z,99.90
2017-07-01T01:33:41.107Z,99.90
2017-07-01T01:36:08.856Z,99.90
2017-07-01T01:38:36.657Z,99.90
2017-07-01T01:41:04.403Z,99.90
2017-07-01T01:43:32.192Z,99.90
2017-07-01T01:45:59.975Z,99.90
2017-07-01T01:48:27.787Z,99.90
2017-07-01T01:50:55.603Z,99.90
2017-07-01T01:53:23.390Z,99.90
2017-07-01T01:55:51.163Z,99.90
2017-07-01T01:58:18.947Z,99.90
2017-07-01T02:00:46.754Z,99.90
2017-07-01T02:03:14.540Z,99.90
2017-07-01T02:05:42.365Z,99.90
2017-07-01T02:08:10.941Z,99.90
2017-07-01T02:10:38.718Z,99.90
2017-07-01T02:13:07.279Z,99.90
2017-07-01T02:15:35.072Z,99.90
2017-07-01T02:18:05.639Z,99.90
2017-07-01T02:20:50.192Z,99.90
2017-07-01T02:23:17.979Z,99.90
2017-07-01T02:25:52.352Z,99.90
2017-07-01T02:28:20.159Z,99.90
2017-07-01T02:30:47.920Z,99.90
2017-07-01T02:33:15.681Z,99.90
2017-07-01T02:35:44.260Z,99.90
2017-07-01T02:38:12.007Z,99.90
2017-07-01T02:40:39.798Z,99.90
2017-07-01T02:43:08.383Z,99.90
2017-07-01T02:45:36.584Z,99.90
2017-07-01T02:48:22.045Z,99.90
2017-07-01T02:51:05.520Z,99.90
2017-07-01T02:53:35.087Z,99.90
2017-07-01T02:56:19.551Z,99.90
2017-07-01T02:58:53.268Z,99.90
2017-07-01T03:01:21.073Z,99.90
2017-07-01T03:03:48.876Z,99.90
2017-07-01T03:06:17.388Z,99.90
2017-07-01T03:08:45.145Z,99.90
2017-07-01T03:11:13.720Z,99.90
2017-07-01T03:13:41.471Z,99.90
2017-07-01T03:16:09.215Z,99.90
2017-07-01T03:18:37.008Z,99.90
2017-07-01T03:21:04.893Z,99.90
2017-07-01T03:23:32.645Z,99.90
2017-07-01T03:26:00.388Z,99.90
2017-07-01T03:28:28.938Z,99.90
2017-07-01T03:30:56.703Z,99.90
2017-07-01T03:33:24.514Z,99.90
2017-07-01T03:35:52.303Z,99.90
2017-07-01T03:38:39.255Z,99.90
2017-07-01T03:41:14.711Z,99.90
2017-07-01T03:43:46.161Z,99.90
2017-07-01T03:46:14.584Z,99.90
2017-07-01T03:48:48.148Z,99.90
2017-07-01T03:51:15.948Z,99.90
2017-07-01T03:53:43.731Z,99.90
2017-07-01T03:56:12.269Z,99.90
2017-07-01T03:58:40.169Z,99.90
2017-07-01T04:01:07.936Z,99.90
2017-07-01T04:03:36.739Z,99.90
2017-07-01T04:06:04.528Z,99.90
2017-07-01T04:08:32.349Z,99.90
2017-07-01T04:11:00.122Z,99.90
2017-07-01T04:13:27.876Z,99.90
2017-07-01T04:15:56.461Z,99.90
2017-07-01T04:18:30.032Z,99.90
2017-07-01T04:20:58.101Z,99.90
2017-07-01T04:23:25.938Z,99.90
2017-07-01T04:25:53.700Z,99.90
2017-07-01T04:28:21.575Z,99.90
2017-07-01T04:30:49.418Z,99.90
2017-07-01T04:33:17.259Z,99.90
2017-07-01T04:35:45.130Z,99.90
2017-07-01T04:38:25.072Z,99.90
2017-07-01T04:40:52.932Z,99.90
2017-07-01T04:43:27.488Z,99.90
2017-07-01T04:45:57.079Z,99.90
2017-07-01T04:48:24.879Z,99.90
2017-07-01T04:50:58.644Z,99.90
2017-07-01T04:53:32.443Z,99.90
2017-07-01T04:56:00.208Z,99.90
2017-07-01T04:58:27.969Z,99.90
2017-07-01T05:00:57.575Z,99.90
2017-07-01T05:03:25.676Z,99.90
2017-07-01T05:05:53.501Z,99.90
2017-07-01T05:08:25.318Z,99.90
2017-07-01T05:10:53.152Z,99.90
2017-07-01T05:13:20.964Z,99.90
2017-07-01T05:15:49.727Z,99.90
2017-07-01T05:18:17.529Z,99.90
2017-07-01T05:20:45.928Z,99.90
2017-07-01T05:23:13.707Z,99.90
2017-07-01T05:25:48.104Z,99.90
2017-07-01T05:28:15.856Z,99.90
2017-07-01T05:30:44.309Z,99.90
2017-07-01T05:33:12.052Z,99.90
2017-07-01T05:35:41.941Z,99.90
2017-07-01T05:38:09.684Z,99.90
2017-07-01T05:40:40.247Z,99.90
2017-07-01T05:43:12.800Z,99.90
2017-07-01T05:45:40.563Z,99.90
2017-07-01T05:48:08.378Z,99.90
2017-07-01T05:50:36.142Z,99.90
2017-07-01T05:53:03.896Z,99.90
2017-07-01T05:55:31.706Z,99.90
2017-07-01T05:57:59.492Z,99.90
2017-07-01T06:00:33.140Z,99.90
2017-07-01T06:03:00.938Z,99.90
2017-07-01T06:05:28.714Z,99.90
2017-07-01T06:07:56.462Z,99.90
2017-07-01T06:10:30.951Z,99.90
2017-07-01T06:12:59.522Z,99.90
2017-07-01T06:15:33.283Z,99.90
2017-07-01T06:18:01.031Z,99.90
2017-07-01T06:20:28.791Z,99.90
2017-07-01T06:23:00.407Z,99.90
2017-07-01T06:25:28.166Z,99.90
2017-07-01T06:27:56.688Z,99.90
2017-07-01T06:30:44.224Z,99.90
2017-07-01T06:33:12.836Z,99.90
2017-07-01T06:35:43.364Z,99.90
2017-07-01T06:38:26.034Z,99.50
2017-07-01T06:40:55.656Z,99.90
2017-07-01T06:43:23.459Z,99.00
2017-07-01T06:45:51.203Z,99.50
2017-07-01T06:48:20.784Z,98.60
2017-07-01T06:50:48.573Z,99.80
2017-07-01T06:53:17.436Z,98.80
2017-07-01T06:55:45.235Z,98.80
2017-07-01T06:58:12.982Z,98.50
2017-07-01T07:00:41.580Z,99.00
2017-07-01T07:03:09.337Z,99.10
2017-07-01T07:05:37.087Z,98.80
2017-07-01T07:08:04.892Z,98.70
2017-07-01T07:10:32.645Z,98.00
2017-07-01T07:13:00.412Z,98.80
2017-07-01T07:15:28.244Z,99.10
2017-07-01T07:17:56.116Z,99.10
2017-07-01T07:20:23.927Z,98.70
2017-07-01T07:22:51.703Z,99.00
2017-07-01T07:25:19.455Z,98.70
2017-07-01T07:27:47.276Z,99.00
2017-07-01T07:30:15.137Z,99.20
2017-07-01T07:32:42.929Z,99.10
2017-07-01T07:35:11.756Z,99.10
2017-07-01T07:37:39.535Z,99.20
2017-07-01T07:40:07.134Z,99.60
2017-07-01T07:42:34.956Z,99.00
2017-07-01T07:45:04.496Z,99.60
2017-07-01T07:47:32.454Z,99.60
2017-07-01T07:50:00.273Z,99.30
2017-07-01T07:52:28.148Z,99.50
2017-07-01T07:54:55.999Z,99.90
2017-07-01T07:57:23.816Z,99.90
2017-07-01T07:59:51.671Z,99.90
2017-07-01T08:02:19.500Z,99.90
2017-07-01T08:04:47.366Z,99.80
2017-07-01T08:07:15.281Z,99.80
2017-07-01T08:09:43.105Z,99.90
2017-07-01T08:12:10.940Z,99.50
2017-07-01T08:14:38.707Z,99.40
2017-07-01T08:17:06.558Z,99.10
2017-07-01T08:19:34.528Z,98.50
2017-07-01T08:22:02.715Z,98.90
2017-07-01T08:27:22.171Z,97.70
2017-07-01T08:29:49.996Z,97.40
2017-07-01T08:35:10.923Z,98.10
2017-07-01T08:37:38.689Z,97.90
2017-07-01T08:40:06.463Z,97.60
2017-07-01T08:42:34.412Z,97.80
2017-07-01T08:45:02.189Z,97.50
2017-07-01T08:47:29.935Z,97.30
2017-07-01T08:49:57.748Z,96.90
2017-07-01T08:52:25.523Z,97.40
2017-07-01T08:54:53.308Z,97.30
2017-07-01T08:57:21.307Z,97.20
2017-07-01T08:59:49.074Z,96.50
2017-07-01T09:02:16.902Z,96.20
2017-07-01T09:04:44.718Z,97.00
2017-07-01T09:07:12.465Z,95.90
2017-07-01T09:15:34.068Z,82.50
2017-07-01T09:18:02.380Z,81.10
2017-07-01T09:20:30.672Z,80.10
2017-07-01T09:22:59.020Z,79.50
2017-07-01T09:25:27.388Z,78.80
2017-07-01T09:27:55.675Z,78.50
2017-07-01T09:30:24.012Z,78.40
2017-07-01T09:32:52.301Z,78.30
2017-07-01T09:35:20.585Z,78.40
2017-07-01T09:37:48.912Z,78.40
2017-07-01T09:40:17.269Z,78.40
2017-07-01T09:42:45.552Z,78.30
2017-07-01T09:45:13.893Z,78.50
2017-07-01T09:47:43.452Z,77.90
2017-07-01T09:50:11.752Z,77.60
2017-07-01T09:52:40.094Z,77.50
2017-07-01T10:03:22.736Z,80.60
2017-07-01T10:05:51.791Z,80.30
2017-07-01T10:08:22.153Z,80.30
2017-07-01T10:13:16.072Z,79.80
2017-07-01T10:15:45.425Z,80.50
2017-07-01T10:18:13.931Z,80.80
2017-07-01T10:20:42.288Z,81.00
2017-07-01T10:23:10.575Z,81.00
2017-07-01T10:25:38.872Z,81.00
2017-07-01T10:28:09.739Z,81.10
2017-07-01T10:30:38.419Z,81.10
2017-07-01T10:33:08.996Z,81.20
2017-07-01T10:35:37.296Z,81.20
2017-07-01T10:38:07.024Z,80.90
2017-07-01T10:40:35.379Z,77.70
2017-07-01T10:43:03.668Z,77.20
2017-07-01T10:45:31.958Z,77.00
2017-07-01T10:49:55.601Z,78.20
2017-07-01T10:52:24.725Z,80.40
2017-07-01T10:54:53.027Z,80.30
2017-07-01T10:57:21.360Z,80.20
2017-07-01T10:59:49.679Z,81.00
2017-07-01T11:02:18.028Z,81.40
2017-07-01T11:04:46.333Z,81.90
2017-07-01T11:07:14.636Z,82.50
2017-07-01T11:09:42.980Z,82.90
2017-07-01T11:12:12.100Z,81.40
2017-07-01T11:14:40.387Z,81.30
2017-07-01T11:17:08.679Z,79.70
2017-07-01T11:19:37.856Z,79.70
2017-07-01T11:22:06.144Z,80.20
2017-07-01T11:24:34.433Z,81.70
2017-07-01T11:27:02.767Z,81.20
2017-07-01T11:29:31.056Z,81.40
2017-07-01T11:31:59.489Z,81.50
2017-07-01T11:34:27.780Z,82.00
2017-07-01T11:36:56.174Z,82.30
2017-07-01T11:39:24.507Z,82.40
2017-07-01T11:41:52.799Z,82.70
2017-07-01T11:44:21.601Z,82.80
2017-07-01T11:46:50.007Z,83.50
2017-07-01T11:49:22.763Z,84.10
2017-07-01T11:51:51.059Z,83.90
2017-07-01T11:54:19.347Z,83.10
2017-07-01T11:56:47.697Z,83.40
2017-07-01T11:59:15.990Z,83.50
2017-07-01T12:01:44.296Z,83.50
2017-07-01T12:04:12.630Z,83.30
2017-07-01T12:06:40.916Z,83.40
2017-07-01T12:09:09.312Z,82.80
2017-07-01T12:11:37.602Z,82.50
2017-07-01T12:14:05.934Z,90.00
2017-07-01T12:16:34.291Z,93.20
2017-07-01T12:19:03.908Z,95.30
2017-07-01T12:21:32.267Z,97.00
2017-07-01T12:24:00.595Z,97.70
2017-07-01T12:26:28.899Z,97.60
2017-07-01T12:28:57.223Z,97.90
2017-07-01T12:31:26.221Z,98.50
2017-07-01T12:33:54.518Z,97.70
2017-07-01T12:36:22.840Z,98.40
2017-07-01T12:38:51.247Z,98.10
2017-07-01T12:41:19.547Z,98.90
2017-07-01T12:43:47.984Z,99.40
2017-07-01T12:46:16.457Z,99.90
2017-07-01T12:48:44.772Z,99.90
2017-07-01T12:51:13.112Z,99.90
2017-07-01T12:53:41.421Z,99.90
2017-07-01T12:56:10.029Z,99.90
2017-07-01T12:58:38.324Z,99.90
2017-07-01T13:01:06.624Z,99.90
2017-07-01T13:03:34.953Z,99.90
2017-07-01T13:06:03.340Z,99.90
2017-07-01T13:08:33.464Z,99.90
2017-07-01T13:11:01.781Z,99.90
2017-07-01T13:13:30.081Z,99.90
2017-07-01T13:15:58.421Z,99.90
2017-07-01T13:18:26.720Z,99.90
2017-07-01T13:20:55.081Z,99.90
2017-07-01T13:23:23.382Z,99.90
2017-07-01T13:25:52.441Z,99.90
2017-07-01T13:28:20.801Z,99.90
2017-07-01T13:30:49.113Z,99.90
2017-07-01T13:33:17.397Z,99.90
2017-07-01T13:35:45.885Z,99.90
2017-07-01T13:38:14.200Z,99.90
2017-07-01T13:40:42.494Z,99.90
2017-07-01T13:43:10.831Z,99.90
2017-07-01T13:45:39.188Z,99.90
2017-07-01T13:48:07.485Z,99.90
2017-07-01T13:50:39.168Z,99.90
2017-07-01T13:53:07.460Z,99.90
2017-07-01T13:55:35.787Z,99.90
2017-07-01T13:58:07.199Z,99.90
2017-07-01T14:00:36.617Z,99.90
2017-07-01T14:03:04.968Z,99.90
2017-07-01T14:05:33.256Z,99.90
2017-07-01T14:08:03.056Z,99.90
2017-07-01T14:10:31.569Z,99.90
2017-07-01T14:13:05.241Z,99.90
2017-07-01T14:15:33.683Z,99.90
2017-07-01T14:18:01.999Z,99.90
2017-07-01T14:20:30.312Z,99.90
2017-07-01T14:22:59.423Z,99.90
2017-07-01T14:25:27.724Z,99.90
2017-07-01T14:27:56.041Z,99.90
2017-07-01T14:30:24.394Z,99.90
2017-07-01T14:32:52.685Z,99.90
2017-07-01T14:35:21.755Z,99.90
2017-07-01T14:37:50.087Z,99.90
2017-07-01T14:40:18.435Z,99.90
2017-07-01T14:42:46.731Z,99.90
2017-07-01T14:45:15.184Z,99.90
2017-07-01T14:47:43.857Z,99.90
2017-07-01T14:50:12.217Z,99.90
2017-07-01T14:52:40.512Z,99.90
2017-07-01T14:55:08.805Z,99.90
2017-07-01T14:57:37.907Z,99.90
2017-07-01T15:00:08.645Z,99.90
2017-07-01T15:02:36.939Z,99.90
2017-07-01T15:05:06.408Z,99.90
2017-07-01T15:07:34.747Z,99.90
2017-07-01T15:10:03.045Z,99.90
2017-07-01T15:12:31.396Z,99.90
2017-07-01T15:14:59.696Z,99.90
2017-07-01T15:17:27.997Z,99.90
2017-07-01T15:19:58.517Z,99.90
2017-07-01T15:22:26.871Z,99.90
2017-07-01T15:24:56.260Z,99.90
2017-07-01T15:27:24.562Z,99.90
2017-07-01T15:29:53.686Z,99.90
2017-07-01T15:32:23.271Z,99.90
2017-07-01T15:34:51.575Z,99.90
2017-07-01T15:37:19.974Z,99.90
2017-07-01T15:39:48.285Z,99.90
2017-07-01T15:42:16.769Z,99.90
2017-07-01T15:44:45.080Z,99.90
2017-07-01T15:47:13.379Z,99.90
2017-07-01T15:49:41.735Z,99.90
2017-07-01T15:52:10.033Z,99.90
2017-07-01T15:54:38.399Z,99.90
2017-07-01T15:57:06.752Z,99.90
2017-07-01T15:59:35.049Z,99.90
2017-07-01T16:02:03.387Z,99.90
2017-07-01T16:04:31.681Z,99.90
2017-07-01T16:07:00.064Z,99.90
2017-07-01T16:09:28.371Z,99.90
2017-07-01T16:11:56.660Z,99.90
2017-07-01T16:14:25.413Z,99.90
2017-07-01T16:16:53.725Z,99.90
2017-07-01T16:19:22.020Z,99.90
2017-07-01T16:21:50.576Z,99.90
2017-07-01T16:24:19.194Z,99.90
2017-07-01T16:26:47.910Z,99.90
2017-07-01T16:29:16.322Z,99.90
2017-07-01T16:31:44.836Z,99.90
2017-07-01T16:34:13.297Z,99.90
2017-07-01T16:36:41.745Z,99.90
2017-07-01T16:39:10.344Z,99.90
2017-07-01T16:41:38.828Z,99.90
2017-07-01T16:44:07.824Z,99.90
2017-07-01T16:46:36.421Z,99.90
2017-07-01T16:49:05.469Z,99.90
2017-07-01T16:51:33.920Z,99.90
2017-07-01T16:54:02.281Z,99.90
2017-07-01T16:56:30.633Z,99.90
2017-07-01T16:58:58.979Z,99.90
2017-07-01T17:01:27.315Z,99.90
2017-07-01T17:03:55.623Z,99.90
2017-07-01T17:06:23.977Z,99.90
2017-07-01T17:08:52.280Z,99.90
2017-07-01T17:11:20.597Z,99.90
2017-07-01T17:13:49.037Z,99.90
2017-07-01T17:16:17.331Z,99.90
2017-07-01T17:18:45.625Z,99.90
2017-07-01T17:21:13.965Z,99.90
2017-07-01T17:23:42.316Z,99.90
2017-07-01T17:26:10.617Z,99.90
2017-07-01T17:28:38.922Z,99.90
2017-07-01T17:31:07.303Z,99.90
2017-07-01T17:33:35.604Z,99.90
2017-07-01T17:36:03.899Z,99.90
2017-07-01T17:38:32.244Z,99.90
2017-07-01T17:41:00.648Z,99.90
2017-07-01T17:43:32.563Z,99.90
2017-07-01T17:46:00.928Z,99.90
2017-07-01T17:48:33.776Z,99.90
2017-07-01T17:51:02.129Z,99.90
2017-07-01T17:53:30.619Z,99.90
2017-07-01T17:55:58.924Z,99.90
2017-07-01T17:58:27.240Z,99.90
2017-07-01T18:00:55.581Z,99.90
2017-07-01T18:03:28.184Z,99.90
2017-07-01T18:05:56.758Z,99.90
2017-07-01T18:08:25.063Z,99.90
2017-07-01T18:10:53.351Z,99.90
2017-07-01T18:13:21.726Z,99.90
2017-07-01T18:15:50.032Z,99.90
2017-07-01T18:18:18.344Z,99.90
2017-07-01T18:20:46.718Z,99.90
2017-07-01T18:23:15.025Z,99.90
2017-07-01T18:25:43.332Z,99.90
2017-07-01T18:28:11.962Z,99.90
2017-07-01T18:30:40.268Z,99.90
2017-07-01T18:33:08.572Z,99.90
2017-07-01T18:35:36.917Z,99.90
2017-07-01T18:38:05.267Z,99.90
2017-07-01T18:40:33.571Z,99.90
2017-07-01T18:43:02.028Z,99.90
2017-07-01T18:45:30.336Z,99.90
2017-07-01T18:47:58.642Z,99.90
2017-07-01T18:50:26.987Z,99.90
2017-07-01T18:52:55.348Z,99.90
2017-07-01T18:55:23.662Z,99.90
2017-07-01T18:57:52.490Z,99.90
2017-07-01T19:00:22.859Z,99.90
2017-07-01T19:02:51.266Z,99.90
2017-07-01T19:05:20.770Z,99.90
2017-07-01T19:07:49.122Z,99.90
2017-07-01T19:10:17.485Z,99.90
2017-07-01T19:12:45.858Z,99.90
2017-07-01T19:15:14.164Z,99.90
2017-07-01T19:17:42.472Z,99.90
2017-07-01T19:20:10.892Z,99.90
2017-07-01T19:22:39.201Z,99.90
2017-07-01T19:25:07.504Z,99.90
2017-07-01T19:27:36.016Z,99.90
2017-07-01T19:30:04.337Z,99.90
2017-07-01T19:32:32.643Z,99.90
2017-07-01T19:35:01.020Z,99.90
2017-07-01T19:37:29.338Z,99.90
2017-07-01T19:39:58.976Z,99.90
2017-07-01T19:42:27.327Z,99.90
2017-07-01T19:44:55.642Z,99.90
2017-07-01T19:47:24.000Z,99.90
2017-07-01T19:49:52.317Z,99.90
2017-07-01T19:52:20.622Z,99.90
2017-07-01T19:54:48.967Z,99.90
2017-07-01T19:57:17.277Z,99.90
2017-07-01T19:59:45.582Z,99.90
2017-07-01T20:02:13.930Z,99.90
2017-07-01T20:04:42.275Z,99.90
2017-07-01T20:07:10.717Z,99.90
2017-07-01T20:09:39.026Z,99.90
2017-07-01T20:12:07.334Z,99.90
2017-07-01T20:14:35.688Z,99.90
2017-07-01T20:17:04.900Z,99.90
2017-07-01T20:19:33.836Z,99.90
2017-07-01T20:22:02.145Z,99.90
2017-07-01T20:24:30.501Z,99.90
2017-07-01T20:26:58.804Z,99.90
2017-07-01T20:29:27.174Z,99.90
2017-07-01T20:31:55.481Z,99.90
2017-07-01T20:34:23.896Z,99.90
2017-07-01T20:36:52.255Z,99.90
2017-07-01T20:39:20.559Z,99.90
2017-07-01T20:41:48.911Z,99.90
2017-07-01T20:44:17.218Z,99.90
2017-07-01T20:46:45.666Z,99.90
2017-07-01T20:49:14.352Z,99.90
2017-07-01T20:51:42.658Z,99.90
2017-07-01T20:54:11.784Z,99.90
2017-07-01T20:56:40.098Z,99.90
2017-07-01T20:59:08.444Z,99.90
2017-07-01T21:01:37.523Z,99.90
2017-07-01T21:04:05.871Z,99.90
2017-07-01T21:06:34.337Z,99.90
2017-07-01T21:09:02.713Z,99.90
2017-07-01T21:11:31.027Z,99.90
2017-07-01T21:13:59.328Z,99.90
2017-07-01T21:16:27.675Z,99.90
2017-07-01T21:18:56.097Z,99.90
2017-07-01T21:21:24.404Z,99.90
2017-07-01T21:23:52.712Z,99.90
2017-07-01T21:26:21.067Z,99.90
2017-07-01T21:28:49.415Z,99.90
2017-07-01T21:31:17.763Z,99.90
2017-07-01T21:33:46.140Z,99.90
2017-07-01T21:36:14.500Z,99.90
2017-07-01T21:38:42.803Z,99.90
2017-07-01T21:41:11.871Z,99.90
2017-07-01T21:43:40.237Z,99.90
2017-07-01T21:46:08.541Z,99.90
2017-07-01T21:48:36.902Z,99.90
2017-07-01T21:51:05.261Z,99.90
2017-07-01T21:53:33.560Z,99.90
2017-07-01T21:56:03.203Z,99.90
2017-07-01T21:58:31.505Z,99.90
2017-07-01T22:00:59.808Z,99.90
2017-07-01T22:03:28.214Z,99.90
2017-07-01T22:05:56.580Z,99.90
2017-07-01T22:08:24.891Z,99.90
2017-07-01T22:10:53.515Z,99.90
2017-07-01T22:13:21.819Z,99.90
2017-07-01T22:15:50.119Z,99.90
2017-07-01T22:18:18.514Z,99.90
2017-07-01T22:20:46.820Z,99.90
2017-07-01T22:23:15.127Z,99.90
2017-07-01T22:25:43.475Z,99.90
2017-07-01T22:28:12.048Z,99.90
2017-07-01T22:30:40.354Z,99.90
2017-07-01T22:33:09.422Z,99.90
2017-07-01T22:35:39.382Z,99.90
2017-07-01T22:38:08.446Z,99.90
2017-07-01T22:40:36.769Z,99.90
2017-07-01T22:43:05.127Z,99.90
2017-07-01T22:45:33.436Z,99.90
2017-07-01T22:48:01.739Z,99.90
2017-07-01T22:50:30.117Z,99.90
2017-07-01T22:52:58.423Z,99.90
2017-07-01T22:55:26.724Z,99.90
2017-07-01T22:57:55.064Z,99.90
2017-07-01T23:00:23.435Z,99.90
2017-07-01T23:02:55.000Z,99.90
2017-07-01T23:05:23.364Z,99.90
2017-07-01T23:07:51.674Z,99.90
2017-07-01T23:10:20.013Z,99.90
2017-07-01T23:12:48.403Z,99.90
2017-07-01T23:15:16.709Z,99.90
2017-07-01T23:17:45.008Z,99.90
2017-07-01T23:20:13.359Z,99.90
2017-07-01T23:22:41.659Z,99.90
2017-07-01T23:25:10.009Z,99.90
2017-07-01T23:27:38.345Z,99.90
2017-07-01T23:30:06.683Z,99.90
2017-07-01T23:32:34.988Z,99.90
2017-07-01T23:35:03.340Z,99.90
2017-07-01T23:37:33.871Z,99.90
2017-07-01T23:40:02.940Z,99.90
2017-07-01T23:42:31.283Z,99.90
2017-07-01T23:44:59.588Z,99.90
2017-07-01T23:47:27.968Z,99.90
2017-07-01T23:49:56.331Z,99.90
2017-07-01T23:52:24.640Z,99.90
2017-07-01T23:54:53.715Z,99.90
2017-07-01T23:57:22.729Z,99.90
2017-07-01T23:59:51.071Z,99.90
